Time;durP1;ratioP1;P1;durP2;ratioP2;P2;SDS_P1;SDS_P2;PMS_P1;PMS_P2;Temp;Humidity;BMP_temperature;BMP_pressure;BME280_temperature;BME280_humidity;BME280_pressure;Samples;Min_cycle;Max_cycle;Signal;HPM_P1;HPM_P2
2023/01/21 00:02:27;;;;;;;27.70;9.97;;;;;;;;;;10427744;28;20735;-75
2023/01/21 00:07:28;;;;;;;22.77;9.60;;;;;;;;;;10434044;28;20214;-75
2023/01/21 00:12:29;;;;;;;19.83;10.33;;;;;;;;;;10426122;28;20215;-76
2023/01/21 00:17:34;;;;;;;22.40;9.80;;;;;;;;;;10427805;28;20211;-76
2023/01/21 00:22:35;;;;;;;28.90;10.37;;;;;;;;;;10430004;28;20225;-78
2023/01/21 00:27:37;;;;;;;23.83;10.60;;;;;;;;;;10392868;28;20295;-76
2023/01/21 00:32:38;;;;;;;19.87;9.83;;;;;;;;;;10407815;28;20775;-76
2023/01/21 00:37:39;;;;;;;22.60;10.50;;;;;;;;;;10427883;28;20216;-74
2023/01/21 00:42:40;;;;;;;21.27;8.75;;;;;;;;;;10424689;28;20206;-75
2023/01/21 00:47:41;;;;;;;18.73;9.57;;;;;;;;;;10410944;28;20250;-74
2023/01/21 00:52:42;;;;;;;19.93;9.73;;;;;;;;;;10428959;28;20660;-76
2023/01/21 00:57:43;;;;;;;26.27;10.43;;;;;;;;;;10410845;28;20215;-77
2023/01/21 01:02:45;;;;;;;25.40;9.77;;;;;;;;;;10426827;28;20222;-79
2023/01/21 01:07:46;;;;;;;26.30;10.00;;;;;;;;;;10440805;28;20736;-75
2023/01/21 01:12:47;;;;;;;36.87;10.43;;;;;;;;;;10407724;28;20751;-79
2023/01/21 01:17:48;;;;;;;27.80;10.30;;;;;;;;;;10427431;28;20211;-79
2023/01/21 01:22:50;;;;;;;25.00;9.57;;;;;;;;;;10427325;28;20225;-77
2023/01/21 01:27:51;;;;;;;26.53;10.10;;;;;;;;;;10419680;28;21117;-78
2023/01/21 01:32:52;;;;;;;26.77;9.83;;;;;;;;;;10430175;28;20698;-75
2023/01/21 01:37:53;;;;;;;29.77;11.00;;;;;;;;;;10431927;28;20221;-75
2023/01/21 01:42:55;;;;;;;22.20;9.50;;;;;;;;;;10425869;28;20245;-76
2023/01/21 01:47:58;;;;;;;27.87;11.07;;;;;;;;;;10425172;28;20305;-77
2023/01/21 01:53:00;;;;;;;25.13;10.00;;;;;;;;;;10430924;28;20214;-80
2023/01/21 01:58:03;;;;;;;26.47;11.17;;;;;;;;;;10427349;28;20961;-78
2023/01/21 02:08:25;;;;;;;24.67;9.70;;;;;;;;;;10426865;28;20276;-75
2023/01/21 02:13:27;;;;;;;26.67;10.17;;;;;;;;;;10411728;28;20218;-78
2023/01/21 02:18:48;;;;;;;24.10;10.40;;;;;;;;;;10428314;28;20530;-76
2023/01/21 02:24:08;;;;;;;29.20;10.73;;;;;;;;;;10376356;28;20210;-74
2023/01/21 02:29:09;;;;;;;22.20;9.87;;;;;;;;;;10429225;28;20284;-78
2023/01/21 02:34:24;;;;;;;22.33;9.20;;;;;;;;;;10412774;28;20216;-76
2023/01/21 02:39:28;;;;;;;23.10;8.77;;;;;;;;;;10412510;28;20211;-76
2023/01/21 02:44:40;;;;;;;20.77;9.10;;;;;;;;;;10406180;28;20222;-75
2023/01/21 02:49:43;;;;;;;22.67;7.30;;;;;;;;;;10408707;28;20323;-75
2023/01/21 02:54:49;;;;;;;18.77;8.17;;;;;;;;;;10443712;28;20222;-77
2023/01/21 02:59:51;;;;;;;16.73;6.70;;;;;;;;;;10424866;28;20230;-77
2023/01/21 03:04:59;;;;;;;20.53;7.70;;;;;;;;;;10425004;28;20775;-77
2023/01/21 03:10:24;;;;;;;20.30;6.97;;;;;;;;;;10402901;28;20227;-77
2023/01/21 03:21:03;;;;;;;16.87;7.23;;;;;;;;;;10427024;28;20219;-76
2023/01/21 03:26:06;;;;;;;20.40;8.03;;;;;;;;;;10426590;28;20236;-76
2023/01/21 03:31:11;;;;;;;19.50;7.80;;;;;;;;;;10430632;28;20203;-81
2023/01/21 03:36:16;;;;;;;19.92;7.38;;;;;;;;;;10426254;28;20296;-76
2023/01/21 03:41:19;;;;;;;23.47;7.93;;;;;;;;;;10429442;28;20626;-76
2023/01/21 03:46:26;;;;;;;22.50;8.40;;;;;;;;;;10413072;28;20648;-78
2023/01/21 03:51:38;;;;;;;24.55;8.38;;;;;;;;;;10422701;28;20229;-76
2023/01/21 03:56:40;;;;;;;20.60;8.87;;;;;;;;;;10402624;28;20222;-77
2023/01/21 04:01:41;;;;;;;24.52;8.25;;;;;;;;;;10426943;28;20215;-81
2023/01/21 04:06:42;;;;;;;21.85;7.88;;;;;;;;;;10412543;28;20238;-76
2023/01/21 04:11:43;;;;;;;23.83;9.57;;;;;;;;;;10435574;28;20214;-78
2023/01/21 04:16:44;;;;;;;13.63;7.17;;;;;;;;;;10438969;28;20226;-77
2023/01/21 04:21:45;;;;;;;17.77;7.07;;;;;;;;;;10437099;28;20903;-77
2023/01/21 04:26:46;;;;;;;20.00;8.33;;;;;;;;;;10413124;28;20236;-76
2023/01/21 04:31:48;;;;;;;20.07;8.27;;;;;;;;;;10436987;28;20211;-77
2023/01/21 04:36:49;;;;;;;15.23;8.00;;;;;;;;;;10427488;28;20213;-78
2023/01/21 04:41:50;;;;;;;18.43;7.33;;;;;;;;;;10435360;28;20572;-75
2023/01/21 04:46:51;;;;;;;17.37;6.67;;;;;;;;;;10428459;28;20215;-78
2023/01/21 04:51:52;;;;;;;13.30;6.17;;;;;;;;;;10436295;28;21617;-78
2023/01/21 04:56:53;;;;;;;14.67;6.93;;;;;;;;;;10436199;28;20202;-74
2023/01/21 05:01:55;;;;;;;14.23;6.33;;;;;;;;;;10431939;28;20203;-79
2023/01/21 05:06:56;;;;;;;20.47;7.27;;;;;;;;;;10403684;28;20214;-80
2023/01/21 05:11:57;;;;;;;20.90;7.27;;;;;;;;;;10403662;28;21225;-78
2023/01/21 05:16:58;;;;;;;20.07;6.90;;;;;;;;;;10435345;28;20300;-79
2023/01/21 05:21:59;;;;;;;17.83;7.70;;;;;;;;;;10435764;28;20207;-77
2023/01/21 05:27:00;;;;;;;17.37;7.40;;;;;;;;;;10429683;28;20222;-77
2023/01/21 05:32:01;;;;;;;19.80;7.23;;;;;;;;;;10435898;28;20268;-78
2023/01/21 05:37:03;;;;;;;17.33;6.70;;;;;;;;;;10414588;28;20287;-79
2023/01/21 05:42:04;;;;;;;19.00;7.03;;;;;;;;;;10435208;28;20209;-78
2023/01/21 05:47:07;;;;;;;17.60;6.67;;;;;;;;;;10433115;28;20223;-78
2023/01/21 05:52:08;;;;;;;12.53;6.30;;;;;;;;;;10418892;28;20750;-79
2023/01/21 05:57:09;;;;;;;16.17;6.63;;;;;;;;;;10415034;28;20691;-77
2023/01/21 06:02:10;;;;;;;16.33;6.00;;;;;;;;;;10415787;28;20214;-75
2023/01/21 06:07:11;;;;;;;15.87;6.30;;;;;;;;;;10406706;28;20226;-78
2023/01/21 06:12:13;;;;;;;16.30;5.77;;;;;;;;;;10433731;28;20730;-77
2023/01/21 06:17:14;;;;;;;15.67;6.53;;;;;;;;;;10395716;28;20221;-77
2023/01/21 06:22:15;;;;;;;11.87;6.10;;;;;;;;;;10428789;28;20217;-78
2023/01/21 06:27:16;;;;;;;13.77;5.20;;;;;;;;;;10429367;28;20236;-78
2023/01/21 06:32:17;;;;;;;11.07;5.57;;;;;;;;;;10436400;28;20207;-76
2023/01/21 06:37:19;;;;;;;18.67;7.00;;;;;;;;;;10408193;28;20696;-76
2023/01/21 06:42:20;;;;;;;19.63;7.07;;;;;;;;;;10423630;28;20215;-78
2023/01/21 06:47:21;;;;;;;20.40;6.90;;;;;;;;;;10430462;28;20210;-76
2023/01/21 06:52:22;;;;;;;38.63;12.60;;;;;;;;;;10428425;28;20864;-74
2023/01/21 06:57:24;;;;;;;18.17;7.40;;;;;;;;;;10415397;28;20211;-75
2023/01/21 07:02:25;;;;;;;23.70;7.23;;;;;;;;;;10419185;28;20223;-75
2023/01/21 07:07:27;;;;;;;18.70;6.47;;;;;;;;;;10378975;28;20225;-76
2023/01/21 07:12:28;;;;;;;13.30;5.83;;;;;;;;;;10427881;28;20222;-74
2023/01/21 07:17:29;;;;;;;11.23;4.97;;;;;;;;;;10426700;28;20218;-75
2023/01/21 07:22:30;;;;;;;11.87;6.00;;;;;;;;;;10425973;28;20244;-76
2023/01/21 07:27:31;;;;;;;9.37;5.60;;;;;;;;;;10392005;28;20226;-77
2023/01/21 07:32:32;;;;;;;12.47;5.07;;;;;;;;;;10429053;28;20221;-78
2023/01/21 07:37:33;;;;;;;14.30;6.27;;;;;;;;;;10416711;28;20214;-76
2023/01/21 07:42:34;;;;;;;11.40;5.30;;;;;;;;;;10430333;28;20709;-74
2023/01/21 07:47:35;;;;;;;14.87;4.90;;;;;;;;;;10432549;28;20230;-77
2023/01/21 07:52:36;;;;;;;16.43;5.90;;;;;;;;;;10424599;28;20210;-81
2023/01/21 07:57:38;;;;;;;8.80;4.73;;;;;;;;;;10397581;28;20671;-75
2023/01/21 08:02:39;;;;;;;9.73;4.43;;;;;;;;;;10430201;28;20303;-73
2023/01/21 08:07:40;;;;;;;5.90;3.43;;;;;;;;;;10400054;28;20264;-78
2023/01/21 08:12:41;;;;;;;9.17;4.33;;;;;;;;;;10424502;28;20206;-74
2023/01/21 08:17:43;;;;;;;7.43;3.93;;;;;;;;;;10427433;28;20215;-78
2023/01/21 08:22:44;;;;;;;7.53;4.53;;;;;;;;;;10425787;28;20214;-78
2023/01/21 08:27:45;;;;;;;6.40;3.40;;;;;;;;;;10419240;28;20230;-75
2023/01/21 08:32:47;;;;;;;7.10;3.97;;;;;;;;;;10393264;28;20229;-77
2023/01/21 08:37:48;;;;;;;9.83;4.23;;;;;;;;;;10421721;28;20218;-76
2023/01/21 08:42:49;;;;;;;13.43;4.53;;;;;;;;;;10407264;28;20210;-77
2023/01/21 08:47:51;;;;;;;9.63;4.07;;;;;;;;;;10397223;28;20283;-78
2023/01/21 08:52:53;;;;;;;7.40;4.40;;;;;;;;;;10408078;28;20644;-77
2023/01/21 08:57:54;;;;;;;5.10;3.58;;;;;;;;;;10401606;28;20210;-73
2023/01/21 09:02:55;;;;;;;7.57;4.30;;;;;;;;;;10413574;28;20219;-75
2023/01/21 09:07:56;;;;;;;9.68;4.05;;;;;;;;;;10416004;28;20860;-76
2023/01/21 09:12:58;;;;;;;6.57;3.60;;;;;;;;;;10400616;28;20206;-74
2023/01/21 09:17:59;;;;;;;8.57;4.50;;;;;;;;;;10374260;28;20360;-76
2023/01/21 09:23:00;;;;;;;5.67;3.27;;;;;;;;;;10401965;28;20268;-78
2023/01/21 09:28:01;;;;;;;9.57;2.93;;;;;;;;;;10404804;28;20242;-76
2023/01/21 09:33:02;;;;;;;7.63;3.20;;;;;;;;;;10426186;28;20927;-76
2023/01/21 09:38:03;;;;;;;10.85;4.80;;;;;;;;;;10429750;28;20226;-77
2023/01/21 09:43:10;;;;;;;11.50;4.60;;;;;;;;;;10423840;28;20310;-78
2023/01/21 09:48:16;;;;;;;6.95;3.80;;;;;;;;;;10420805;28;20250;-77
2023/01/21 09:53:24;;;;;;;5.82;3.80;;;;;;;;;;10410457;28;20719;-77
2023/01/21 09:58:35;;;;;;;5.93;3.28;;;;;;;;;;10414297;28;20219;-76
2023/01/21 10:03:42;;;;;;;7.18;4.03;;;;;;;;;;10414955;28;20294;-77
2023/01/21 10:08:56;;;;;;;10.15;4.95;;;;;;;;;;10416492;28;20684;-77
2023/01/21 10:14:16;;;;;;;6.28;3.58;;;;;;;;;;10409618;28;20250;-78
2023/01/21 10:19:21;;;;;;;6.07;3.83;;;;;;;;;;10421042;28;20260;-79
2023/01/21 10:24:29;;;;;;;7.57;4.15;;;;;;;;;;10414327;28;20214;-78
2023/01/21 10:29:31;;;;;;;12.02;5.18;;;;;;;;;;10415603;28;20223;-79
2023/01/21 10:34:34;;;;;;;12.75;5.35;;;;;;;;;;10419232;28;20715;-78
2023/01/21 10:39:51;;;;;;;13.20;5.20;;;;;;;;;;10409652;28;20218;-77
2023/01/21 10:44:56;;;;;;;10.57;5.15;;;;;;;;;;10417033;28;20245;-78
2023/01/21 10:50:04;;;;;;;12.52;5.80;;;;;;;;;;10403785;28;20297;-79
2023/01/21 10:55:24;;;;;;;12.43;6.05;;;;;;;;;;10406284;28;20227;-78
2023/01/21 11:00:28;;;;;;;7.65;5.25;;;;;;;;;;10423963;28;20364;-77
2023/01/21 11:05:30;;;;;;;13.40;6.07;;;;;;;;;;10417458;28;20291;-76
2023/01/21 11:10:31;;;;;;;12.93;5.43;;;;;;;;;;10418743;28;20333;-78
2023/01/21 11:15:32;;;;;;;16.00;6.95;;;;;;;;;;10390970;28;21008;-78
2023/01/21 11:20:41;;;;;;;12.15;6.38;;;;;;;;;;10425985;28;20206;-78
2023/01/21 11:25:42;;;;;;;10.13;5.60;;;;;;;;;;10421582;28;20229;-80
2023/01/21 11:30:43;;;;;;;11.15;6.03;;;;;;;;;;10417940;28;20930;-77
2023/01/21 11:35:44;;;;;;;13.45;7.65;;;;;;;;;;10420625;28;20245;-76
2023/01/21 11:40:45;;;;;;;9.48;5.30;;;;;;;;;;10399589;28;20281;-77
2023/01/21 11:45:50;;;;;;;10.07;5.63;;;;;;;;;;10420412;28;20238;-78
2023/01/21 11:51:05;;;;;;;12.40;6.35;;;;;;;;;;10415458;28;20230;-77
2023/01/21 11:56:06;;;;;;;15.05;7.03;;;;;;;;;;10433711;28;20219;-77
2023/01/21 12:01:18;;;;;;;12.73;6.95;;;;;;;;;;10422854;28;20297;-77
2023/01/21 12:06:21;;;;;;;11.85;5.68;;;;;;;;;;10416041;28;20210;-78
2023/01/21 12:11:23;;;;;;;10.98;5.93;;;;;;;;;;10422919;28;20217;-78
2023/01/21 12:16:35;;;;;;;14.55;6.20;;;;;;;;;;10421884;28;20221;-77
2023/01/21 12:21:42;;;;;;;9.05;6.07;;;;;;;;;;10403684;28;20237;-78
2023/01/21 12:26:44;;;;;;;11.43;6.03;;;;;;;;;;10423704;28;20895;-77
2023/01/21 12:31:48;;;;;;;12.30;5.30;;;;;;;;;;10431374;28;20238;-77
2023/01/21 12:37:00;;;;;;;13.80;5.55;;;;;;;;;;10405570;28;20227;-76
2023/01/21 12:42:06;;;;;;;13.32;5.32;;;;;;;;;;10412738;28;20206;-77
2023/01/21 12:47:18;;;;;;;12.95;6.13;;;;;;;;;;10405993;28;20838;-78
2023/01/21 12:52:24;;;;;;;11.25;5.72;;;;;;;;;;10407509;28;20256;-77
2023/01/21 12:57:28;;;;;;;11.02;5.53;;;;;;;;;;10395061;28;20210;-80
2023/01/21 13:02:59;;;;;;;12.82;6.25;;;;;;;;;;10429068;28;20773;-77
2023/01/21 13:08:23;;;;;;;14.02;6.18;;;;;;;;;;10323063;28;21168;-77
2023/01/21 13:13:28;;;;;;;12.77;5.93;;;;;;;;;;10412077;28;20210;-77
2023/01/21 13:18:32;;;;;;;16.00;6.15;;;;;;;;;;10404417;28;20218;-77
2023/01/21 13:23:39;;;;;;;11.07;5.43;;;;;;;;;;10428827;28;20588;-78
2023/01/21 13:28:56;;;;;;;13.75;6.78;;;;;;;;;;10425841;28;20222;-78
2023/01/21 13:34:19;;;;;;;14.35;6.80;;;;;;;;;;10408710;28;21680;-80
2023/01/21 13:39:24;;;;;;;7.95;5.68;;;;;;;;;;10429142;28;20769;-77
2023/01/21 13:44:45;;;;;;;12.43;5.88;;;;;;;;;;10408588;28;20215;-77
2023/01/21 13:49:48;;;;;;;7.82;5.55;;;;;;;;;;10425284;28;22266;-78
2023/01/21 13:54:58;;;;;;;8.50;4.68;;;;;;;;;;10410398;28;20222;-78
2023/01/21 14:00:09;;;;;;;7.80;4.15;;;;;;;;;;10427087;28;20770;-78
2023/01/21 14:05:17;;;;;;;6.65;5.07;;;;;;;;;;10431100;28;20210;-77
2023/01/21 14:10:24;;;;;;;6.15;4.25;;;;;;;;;;10405823;28;20221;-80
2023/01/21 14:15:25;;;;;;;8.75;4.18;;;;;;;;;;10407048;28;20225;-78
2023/01/21 14:20:35;;;;;;;8.23;4.85;;;;;;;;;;10438091;28;20241;-80
2023/01/21 14:25:48;;;;;;;8.10;4.63;;;;;;;;;;10406221;28;20848;-78
2023/01/21 14:31:08;;;;;;;5.25;4.45;;;;;;;;;;10417800;28;20219;-79
2023/01/21 14:36:14;;;;;;;9.35;4.65;;;;;;;;;;10428633;28;20230;-79
2023/01/21 14:41:16;;;;;;;9.20;4.97;;;;;;;;;;10424639;28;20221;-82
2023/01/21 14:46:24;;;;;;;6.63;4.45;;;;;;;;;;10441993;28;20230;-78
2023/01/21 15:23:02;;;;;;;8.52;4.25;;;;;;;;;;10430861;28;20211;-78
2023/01/21 15:28:22;;;;;;;12.45;5.47;;;;;;;;;;10431054;28;20217;-77
2023/01/21 15:33:23;;;;;;;9.52;5.38;;;;;;;;;;10427643;28;20301;-77
2023/01/21 15:38:25;;;;;;;9.05;5.95;;;;;;;;;;10425434;28;20214;-79
2023/01/21 15:43:43;;;;;;;7.90;5.07;;;;;;;;;;10426071;28;20306;-79
2023/01/21 15:48:44;;;;;;;6.47;4.57;;;;;;;;;;10409309;28;20250;-82
2023/01/21 15:53:54;;;;;;;6.85;4.25;;;;;;;;;;10385702;28;20731;-77
2023/01/21 15:59:14;;;;;;;5.65;4.18;;;;;;;;;;10423573;28;20741;-80
2023/01/21 16:04:20;;;;;;;8.93;4.68;;;;;;;;;;10430168;28;20217;-79
2023/01/21 16:09:29;;;;;;;8.70;4.60;;;;;;;;;;10434050;28;20226;-78
2023/01/21 16:14:51;;;;;;;11.45;5.25;;;;;;;;;;10430000;28;20866;-78
2023/01/21 16:19:54;;;;;;;7.63;5.25;;;;;;;;;;10432213;28;20230;-77
2023/01/21 16:25:03;;;;;;;8.15;4.72;;;;;;;;;;10423424;28;20237;-78
2023/01/21 16:30:06;;;;;;;6.82;4.00;;;;;;;;;;10429054;28;20211;-78
2023/01/21 16:35:07;;;;;;;5.05;3.70;;;;;;;;;;10412593;28;20213;-77
2023/01/21 16:40:09;;;;;;;6.00;4.18;;;;;;;;;;10431466;28;20647;-77
2023/01/21 16:45:17;;;;;;;10.20;3.85;;;;;;;;;;10413842;28;20182;-77
2023/01/21 16:50:20;;;;;;;9.63;4.38;;;;;;;;;;10415845;28;20202;-76
2023/01/21 16:55:24;;;;;;;4.85;3.95;;;;;;;;;;10430939;28;20224;-81
2023/01/21 17:00:28;;;;;;;4.32;3.47;;;;;;;;;;10428083;28;20222;-77
2023/01/21 17:05:30;;;;;;;2.80;2.55;;;;;;;;;;10424843;28;20208;-75
2023/01/21 17:10:36;;;;;;;4.72;2.58;;;;;;;;;;10427227;28;20361;-81
2023/01/21 17:15:38;;;;;;;2.53;1.95;;;;;;;;;;10411250;28;20678;-77
2023/01/21 17:20:44;;;;;;;3.17;2.33;;;;;;;;;;10397751;28;20223;-76
2023/01/21 17:25:52;;;;;;;2.85;2.30;;;;;;;;;;10416404;28;20232;-78
2023/01/21 17:31:07;;;;;;;2.35;1.77;;;;;;;;;;10407969;28;20203;-78
2023/01/21 17:36:12;;;;;;;3.15;2.38;;;;;;;;;;10430747;28;20218;-78
2023/01/21 17:41:33;;;;;;;1.95;1.70;;;;;;;;;;10432361;28;20215;-78
2023/01/21 17:46:34;;;;;;;2.22;2.08;;;;;;;;;;10429227;28;20219;-77
2023/01/21 17:51:35;;;;;;;4.00;2.47;;;;;;;;;;10427942;28;20249;-77
2023/01/21 17:56:39;;;;;;;1.85;1.75;;;;;;;;;;10415627;28;20276;-78
2023/01/21 18:01:41;;;;;;;2.35;2.05;;;;;;;;;;10394331;28;20215;-77
2023/01/21 18:06:42;;;;;;;2.45;2.25;;;;;;;;;;10434088;28;20253;-76
2023/01/21 18:11:43;;;;;;;2.28;1.98;;;;;;;;;;10432462;28;20219;-75
2023/01/21 18:16:45;;;;;;;3.22;2.65;;;;;;;;;;10417058;28;20321;-78
2023/01/21 18:21:46;;;;;;;3.92;2.97;;;;;;;;;;10415767;28;20214;-75
2023/01/21 18:26:48;;;;;;;9.82;3.53;;;;;;;;;;10434780;28;20215;-77
2023/01/21 18:31:50;;;;;;;3.10;2.78;;;;;;;;;;10422701;28;21754;-79
2023/01/21 18:36:52;;;;;;;2.28;1.95;;;;;;;;;;10445154;28;20226;-77
2023/01/21 18:41:53;;;;;;;5.47;2.50;;;;;;;;;;10431684;28;20217;-77
2023/01/21 18:46:55;;;;;;;3.30;2.97;;;;;;;;;;10395366;28;20210;-78
2023/01/21 18:51:56;;;;;;;6.10;3.27;;;;;;;;;;10427225;28;21206;-78
2023/01/21 18:56:59;;;;;;;2.60;2.40;;;;;;;;;;10430175;28;20735;-77
2023/01/21 19:02:02;;;;;;;4.35;3.55;;;;;;;;;;10434219;28;20214;-77
2023/01/21 19:07:04;;;;;;;6.63;3.05;;;;;;;;;;10420846;28;20207;-78
2023/01/21 19:12:06;;;;;;;7.28;2.13;;;;;;;;;;10429120;28;20211;-76
2023/01/21 19:17:11;;;;;;;5.40;3.45;;;;;;;;;;10409448;28;20737;-80
2023/01/21 19:22:16;;;;;;;9.65;3.63;;;;;;;;;;10423531;28;20740;-80
2023/01/21 19:27:27;;;;;;;8.07;3.80;;;;;;;;;;10404544;28;20244;-79
2023/01/21 19:32:29;;;;;;;5.88;3.67;;;;;;;;;;10423651;28;20240;-75
2023/01/21 19:37:30;;;;;;;3.35;2.92;;;;;;;;;;10415232;28;20210;-82
2023/01/21 19:42:31;;;;;;;3.70;3.10;;;;;;;;;;10421674;28;20340;-80
2023/01/21 19:47:32;;;;;;;5.18;2.58;;;;;;;;;;10421236;28;20341;-81
2023/01/21 19:52:34;;;;;;;5.63;3.17;;;;;;;;;;10410311;28;20848;-78
2023/01/21 19:57:35;;;;;;;5.13;3.22;;;;;;;;;;10421381;28;20220;-80
2023/01/21 20:02:36;;;;;;;3.60;3.17;;;;;;;;;;10409149;28;20919;-80
2023/01/21 20:07:38;;;;;;;4.20;3.42;;;;;;;;;;10405469;28;20219;-82
2023/01/21 20:12:39;;;;;;;4.10;3.13;;;;;;;;;;10418711;28;20203;-79
2023/01/21 20:17:41;;;;;;;7.22;3.55;;;;;;;;;;10415996;28;20242;-79
2023/01/21 20:22:42;;;;;;;3.50;3.20;;;;;;;;;;10423846;28;20223;-81
2023/01/21 20:27:45;;;;;;;6.22;3.03;;;;;;;;;;10422512;28;20219;-76
2023/01/21 20:32:47;;;;;;;5.05;2.78;;;;;;;;;;10423694;28;20245;-80
2023/01/21 20:37:50;;;;;;;3.70;3.17;;;;;;;;;;10415936;28;20698;-81
2023/01/21 20:42:52;;;;;;;2.97;2.67;;;;;;;;;;10411376;28;20215;-78
2023/01/21 20:47:54;;;;;;;8.50;3.30;;;;;;;;;;10415543;28;20230;-78
2023/01/21 20:52:57;;;;;;;6.15;3.03;;;;;;;;;;10417083;28;20216;-77
2023/01/21 20:57:58;;;;;;;5.47;2.72;;;;;;;;;;10416146;28;20298;-78
2023/01/21 21:03:01;;;;;;;4.55;2.63;;;;;;;;;;10423030;28;20301;-79
2023/01/21 21:08:02;;;;;;;2.75;2.55;;;;;;;;;;10437217;28;20215;-79
2023/01/21 21:13:04;;;;;;;4.93;2.92;;;;;;;;;;10422404;28;20897;-78
2023/01/21 21:18:06;;;;;;;5.30;2.53;;;;;;;;;;10424672;28;20211;-76
2023/01/21 21:23:07;;;;;;;2.38;2.17;;;;;;;;;;10421224;28;20700;-79
2023/01/21 21:28:09;;;;;;;4.28;2.45;;;;;;;;;;10440033;28;20210;-77
2023/01/21 21:33:17;;;;;;;2.60;2.33;;;;;;;;;;10440999;28;20214;-76
2023/01/21 21:38:22;;;;;;;3.85;2.33;;;;;;;;;;10439089;28;20206;-78
2023/01/21 21:43:32;;;;;;;2.97;2.78;;;;;;;;;;10431960;28;20214;-76
2023/01/21 21:48:36;;;;;;;5.37;2.10;;;;;;;;;;10436158;28;20284;-77
2023/01/21 21:53:38;;;;;;;3.47;3.10;;;;;;;;;;10425737;28;20230;-77
2023/01/21 21:58:39;;;;;;;6.65;3.10;;;;;;;;;;10436427;28;20246;-76
2023/01/21 22:03:41;;;;;;;4.63;2.07;;;;;;;;;;10433512;28;20226;-79
2023/01/21 22:08:43;;;;;;;4.35;1.90;;;;;;;;;;10425919;28;20229;-80
2023/01/21 22:13:47;;;;;;;3.63;2.42;;;;;;;;;;10441874;28;20218;-79
2023/01/21 22:18:48;;;;;;;2.45;2.25;;;;;;;;;;10423351;28;20242;-78
2023/01/21 22:23:50;;;;;;;1.80;1.70;;;;;;;;;;10424569;28;20211;-77
2023/01/21 22:28:52;;;;;;;2.65;2.45;;;;;;;;;;10438537;28;20230;-77
2023/01/21 22:33:53;;;;;;;5.82;2.22;;;;;;;;;;10442237;28;20222;-77
2023/01/21 22:38:55;;;;;;;2.08;1.98;;;;;;;;;;10424944;28;20222;-78
2023/01/21 22:43:56;;;;;;;4.53;1.63;;;;;;;;;;10443945;28;20578;-80
2023/01/21 22:48:57;;;;;;;2.40;2.13;;;;;;;;;;10400926;28;20219;-79
2023/01/21 22:54:01;;;;;;;2.40;2.08;;;;;;;;;;10422648;28;20229;-79
2023/01/21 22:59:02;;;;;;;2.72;2.53;;;;;;;;;;10420544;28;20591;-76
2023/01/21 23:04:03;;;;;;;3.55;2.67;;;;;;;;;;10433427;28;20226;-76
2023/01/21 23:09:04;;;;;;;3.08;2.15;;;;;;;;;;10435736;28;20304;-79
2023/01/21 23:14:07;;;;;;;3.50;2.20;;;;;;;;;;10438399;28;20986;-75
2023/01/21 23:19:08;;;;;;;2.17;2.08;;;;;;;;;;10432900;28;20297;-80
2023/01/21 23:24:09;;;;;;;2.65;2.30;;;;;;;;;;10438315;28;20206;-77
2023/01/21 23:29:10;;;;;;;3.17;1.95;;;;;;;;;;10426715;28;20728;-76
2023/01/21 23:34:13;;;;;;;2.65;2.20;;;;;;;;;;10419253;28;20269;-76
2023/01/21 23:39:14;;;;;;;3.88;1.83;;;;;;;;;;10433306;28;20718;-78
2023/01/21 23:44:15;;;;;;;2.47;1.60;;;;;;;;;;10399834;28;20233;-76
2023/01/21 23:49:16;;;;;;;2.58;2.30;;;;;;;;;;10409672;28;20215;-75
2023/01/21 23:54:18;;;;;;;4.25;1.85;;;;;;;;;;10414284;28;20225;-74
2023/01/21 23:59:19;;;;;;;2.40;1.65;;;;;;;;;;10432004;28;20640;-75
